createdAt,value
2023-03-22T00:01:32.448Z,15.20
2023-03-22T00:03:59.985Z,15.70
2023-03-22T00:06:26.942Z,15.80
2023-03-22T00:08:54.272Z,15.73
2023-03-22T00:11:24.318Z,14.90
2023-03-22T00:13:52.707Z,17.97
2023-03-22T00:16:20.435Z,16.03
2023-03-22T00:18:47.557Z,17.07
2023-03-22T00:21:16.042Z,18.27
2023-03-22T00:23:44.153Z,15.60
2023-03-22T00:26:13.878Z,15.47
2023-03-22T00:28:41.635Z,15.67
2023-03-22T00:31:09.254Z,17.07
2023-03-22T00:33:36.371Z,17.17
2023-03-22T00:36:09.400Z,15.03
2023-03-22T00:38:43.673Z,16.90
2023-03-22T00:41:16.911Z,15.83
2023-03-22T00:43:46.751Z,16.80
2023-03-22T00:46:15.032Z,17.40
2023-03-22T00:48:42.401Z,16.00
2023-03-22T00:51:10.277Z,16.07
2023-03-22T00:53:42.386Z,17.13
2023-03-22T00:56:14.200Z,15.73
2023-03-22T00:59:01.642Z,15.43
2023-03-22T01:01:30.205Z,15.77
2023-03-22T01:03:57.406Z,16.93
2023-03-22T01:06:24.424Z,16.07
2023-03-22T01:08:51.747Z,16.63
2023-03-22T01:11:18.913Z,17.17
2023-03-22T01:13:47.997Z,17.00
2023-03-22T01:16:15.344Z,16.53
2023-03-22T01:18:42.324Z,17.03
2023-03-22T01:21:10.956Z,17.07
2023-03-22T01:23:38.134Z,17.83
2023-03-22T01:26:05.724Z,16.60
2023-03-22T01:28:32.834Z,16.67
2023-03-22T01:31:03.146Z,16.93
2023-03-22T01:33:30.700Z,18.33
2023-03-22T01:35:57.939Z,19.03
2023-03-22T01:38:24.896Z,19.30
2023-03-22T01:40:58.744Z,18.90
2023-03-22T01:43:27.882Z,19.80
2023-03-22T01:45:57.241Z,21.67
2023-03-22T01:48:46.326Z,21.90
2023-03-22T01:51:27.714Z,21.60
2023-03-22T01:54:42.935Z,22.00
2023-03-22T01:57:28.310Z,23.17
2023-03-22T02:00:00.731Z,21.63
2023-03-22T02:02:41.538Z,22.83
2023-03-22T02:05:22.308Z,24.03
2023-03-22T02:07:50.600Z,23.30
2023-03-22T02:10:21.286Z,23.47
2023-03-22T02:13:10.571Z,23.43
2023-03-22T02:16:00.847Z,23.53
2023-03-22T02:19:03.281Z,24.33
2023-03-22T02:21:42.460Z,21.37
2023-03-22T02:24:46.840Z,22.60
2023-03-22T02:28:01.756Z,21.30
2023-03-22T02:30:59.957Z,21.30
2023-03-22T02:33:30.074Z,22.47
2023-03-22T02:36:22.358Z,21.80
2023-03-22T02:39:09.016Z,22.00
2023-03-22T02:41:46.616Z,21.10
2023-03-22T02:44:27.116Z,20.63
2023-03-22T02:47:08.110Z,22.53
2023-03-22T02:49:41.196Z,22.40
2023-03-22T02:52:25.345Z,21.27
2023-03-22T02:54:58.145Z,22.40
2023-03-22T02:57:43.510Z,24.27
2023-03-22T03:00:14.142Z,23.07
2023-03-22T03:02:46.972Z,22.93
2023-03-22T03:05:16.192Z,24.27
2023-03-22T03:07:51.025Z,22.70
2023-03-22T03:10:20.910Z,19.70
2023-03-22T03:12:48.016Z,20.47
2023-03-22T03:15:18.723Z,21.50
2023-03-22T03:17:51.602Z,22.37
2023-03-22T03:20:34.453Z,20.87
2023-03-22T03:23:07.355Z,22.20
2023-03-22T03:25:46.272Z,22.13
2023-03-22T03:28:23.098Z,21.57
2023-03-22T03:31:10.485Z,21.47
2023-03-22T03:33:55.241Z,22.80
2023-03-22T03:36:23.375Z,22.93
2023-03-22T03:38:54.204Z,21.20
2023-03-22T03:41:25.621Z,22.83
2023-03-22T03:43:54.268Z,22.33
2023-03-22T03:46:21.342Z,21.47
2023-03-22T03:48:51.616Z,23.70
2023-03-22T03:51:19.271Z,22.37
2023-03-22T03:53:47.200Z,23.27
2023-03-22T03:56:14.495Z,21.77
2023-03-22T03:58:46.500Z,22.83
2023-03-22T04:01:13.470Z,22.33
2023-03-22T04:03:55.496Z,23.20
2023-03-22T04:06:34.700Z,23.03
2023-03-22T04:09:08.690Z,26.17
2023-03-22T04:11:40.382Z,24.50
2023-03-22T04:14:07.478Z,25.23
2023-03-22T04:16:34.444Z,25.17
2023-03-22T04:19:01.401Z,25.47
2023-03-22T04:21:29.136Z,26.40
2023-03-22T04:23:58.711Z,25.23
2023-03-22T04:26:28.400Z,24.60
2023-03-22T04:29:09.849Z,24.70
2023-03-22T04:31:41.090Z,24.00
2023-03-22T04:34:21.771Z,25.67
2023-03-22T04:36:53.038Z,24.20
2023-03-22T04:39:27.711Z,26.33
2023-03-22T04:42:15.338Z,24.20
2023-03-22T04:44:43.505Z,23.80
2023-03-22T04:47:10.647Z,24.30
2023-03-22T04:49:38.033Z,22.70
2023-03-22T04:52:05.284Z,22.80
2023-03-22T04:54:35.225Z,24.90
2023-03-22T04:57:03.921Z,24.13
2023-03-22T04:59:36.947Z,23.40
2023-03-22T05:02:04.038Z,24.43
2023-03-22T05:04:38.205Z,25.47
2023-03-22T05:07:13.518Z,25.37
2023-03-22T05:09:46.755Z,27.90
2023-03-22T05:12:15.082Z,30.20
2023-03-22T05:15:00.189Z,24.97
2023-03-22T05:17:33.197Z,25.20
2023-03-22T05:20:09.367Z,25.77
2023-03-22T05:22:40.594Z,23.70
2023-03-22T05:25:10.634Z,25.33
2023-03-22T05:27:40.017Z,23.13
2023-03-22T05:30:31.362Z,23.90
2023-03-22T05:33:04.903Z,22.00
2023-03-22T05:35:39.234Z,22.87
2023-03-22T05:38:08.685Z,24.03
2023-03-22T05:40:38.339Z,23.57
2023-03-22T05:43:05.788Z,22.57
2023-03-22T05:45:35.379Z,23.50
2023-03-22T05:48:13.096Z,21.90
2023-03-22T05:50:41.106Z,22.87
2023-03-22T05:53:08.904Z,24.10
2023-03-22T05:55:50.323Z,23.03
2023-03-22T05:58:19.233Z,22.33
2023-03-22T06:00:49.976Z,26.63
2023-03-22T06:03:25.701Z,26.17
2023-03-22T06:06:00.985Z,24.60
2023-03-22T06:08:40.604Z,22.87
2023-03-22T06:11:08.373Z,22.40
2023-03-22T06:13:36.767Z,21.73
2023-03-22T06:16:05.669Z,21.80
2023-03-22T06:18:33.346Z,21.17
2023-03-22T06:21:08.365Z,22.83
2023-03-22T06:23:35.551Z,23.23
2023-03-22T06:26:02.649Z,23.33
2023-03-22T06:28:31.051Z,26.40
2023-03-22T06:31:05.371Z,22.53
2023-03-22T06:33:51.211Z,39.07
2023-03-22T06:36:26.892Z,50.90
2023-03-22T06:39:20.497Z,23.73
2023-03-22T06:41:48.696Z,23.07
2023-03-22T06:44:16.485Z,24.13
2023-03-22T06:46:52.380Z,22.67
2023-03-22T06:49:39.559Z,23.27
2023-03-22T06:52:06.624Z,23.37
2023-03-22T06:54:34.996Z,22.17
2023-03-22T06:57:02.040Z,22.77
2023-03-22T06:59:29.104Z,24.23
2023-03-22T07:01:56.209Z,23.70
2023-03-22T07:04:24.177Z,22.17
2023-03-22T07:06:52.116Z,23.60
2023-03-22T07:09:19.637Z,24.30
2023-03-22T07:11:48.905Z,26.57
2023-03-22T07:14:16.120Z,26.03
2023-03-22T07:17:07.002Z,24.47
2023-03-22T07:19:34.060Z,24.53
2023-03-22T07:22:06.642Z,24.17
2023-03-22T07:24:40.346Z,22.33
2023-03-22T07:27:11.852Z,25.53
2023-03-22T07:29:38.939Z,25.17
2023-03-22T07:32:07.517Z,25.90
2023-03-22T07:34:52.477Z,26.87
2023-03-22T07:37:19.772Z,24.67
2023-03-22T07:39:46.743Z,25.50
2023-03-22T07:42:13.769Z,25.13
2023-03-22T07:44:47.319Z,27.53
2023-03-22T07:47:34.139Z,29.20
2023-03-22T07:50:26.931Z,29.53
2023-03-22T07:52:56.722Z,29.13
2023-03-22T07:55:24.055Z,28.20
2023-03-22T07:57:51.324Z,28.53
2023-03-22T08:00:19.150Z,27.53
2023-03-22T08:02:56.327Z,27.77
2023-03-22T08:05:58.914Z,26.80
2023-03-22T08:08:26.513Z,29.33
2023-03-22T08:10:53.956Z,27.63
2023-03-22T08:13:20.983Z,25.83
2023-03-22T08:15:48.099Z,24.67
2023-03-22T08:18:15.577Z,25.13
2023-03-22T08:20:45.731Z,24.33
2023-03-22T08:23:18.153Z,27.53
2023-03-22T08:25:58.559Z,29.00
2023-03-22T08:28:26.634Z,30.73
2023-03-22T08:30:54.285Z,27.37
2023-03-22T08:33:23.776Z,28.80
2023-03-22T08:35:52.042Z,31.13
2023-03-22T08:38:19.747Z,29.97
2023-03-22T08:40:50.974Z,28.53
2023-03-22T08:43:22.210Z,32.20
2023-03-22T08:45:49.199Z,30.40
2023-03-22T08:48:19.586Z,30.17
2023-03-22T08:51:10.685Z,31.13
2023-03-22T08:53:52.060Z,30.30
2023-03-22T08:56:41.878Z,30.70
2023-03-22T08:59:22.428Z,28.80
2023-03-22T09:02:09.971Z,27.93
2023-03-22T09:04:36.956Z,28.73
2023-03-22T09:07:03.958Z,27.03
2023-03-22T09:09:31.011Z,28.80
2023-03-22T09:11:58.457Z,27.07
2023-03-22T09:14:25.703Z,24.20
2023-03-22T09:16:53.990Z,23.80
2023-03-22T09:19:21.249Z,24.23
2023-03-22T09:21:48.583Z,21.67
2023-03-22T09:24:20.763Z,22.90
2023-03-22T09:26:52.975Z,22.20
2023-03-22T09:29:20.631Z,14.77
2023-03-22T09:31:49.035Z,13.10
2023-03-22T09:34:19.968Z,12.23
2023-03-22T09:36:47.550Z,11.60
2023-03-22T09:39:17.829Z,11.50
2023-03-22T09:41:53.976Z,18.70
2023-03-22T09:44:34.937Z,14.50
2023-03-22T09:47:07.799Z,15.47
2023-03-22T09:49:52.707Z,14.00
2023-03-22T09:52:20.467Z,13.60
2023-03-22T09:54:47.578Z,14.43
2023-03-22T09:57:29.225Z,10.20
2023-03-22T09:59:58.918Z,13.37
2023-03-22T10:02:33.329Z,12.33
2023-03-22T10:05:00.299Z,12.63
2023-03-22T10:08:04.353Z,12.60
2023-03-22T10:10:31.798Z,13.27
2023-03-22T10:13:15.352Z,12.43
2023-03-22T10:16:04.261Z,15.90
2023-03-22T10:18:41.673Z,16.97
2023-03-22T10:21:11.387Z,13.97
2023-03-22T10:23:42.275Z,13.40
2023-03-22T10:26:21.573Z,13.57
2023-03-22T10:28:56.431Z,14.87
2023-03-22T10:31:26.891Z,14.50
2023-03-22T10:33:59.670Z,15.27
2023-03-22T10:36:31.552Z,16.13
2023-03-22T10:39:04.131Z,15.20
2023-03-22T10:41:33.822Z,14.33
2023-03-22T10:44:03.185Z,10.57
2023-03-22T10:46:37.247Z,10.20
2023-03-22T10:49:07.305Z,7.83
2023-03-22T10:51:43.445Z,7.40
2023-03-22T10:54:15.055Z,6.23
2023-03-22T10:56:43.220Z,6.57
2023-03-22T10:59:43.208Z,6.33
2023-03-22T11:02:19.231Z,9.40
2023-03-22T11:04:52.691Z,8.23
2023-03-22T11:07:31.772Z,8.80
2023-03-22T11:10:10.700Z,9.13
2023-03-22T11:12:43.823Z,8.87
2023-03-22T11:15:32.845Z,9.23
2023-03-22T11:18:07.935Z,6.90
2023-03-22T11:20:35.361Z,8.27
2023-03-22T11:23:05.315Z,7.77
2023-03-22T11:25:36.877Z,7.07
2023-03-22T11:28:23.119Z,6.70
2023-03-22T11:31:12.787Z,6.43
2023-03-22T11:34:06.356Z,7.73
2023-03-22T11:36:43.825Z,7.40
2023-03-22T11:39:12.382Z,7.23
2023-03-22T11:41:40.724Z,7.03
2023-03-22T11:44:29.052Z,8.63
2023-03-22T11:47:01.838Z,9.40
2023-03-22T11:49:56.445Z,10.73
2023-03-22T11:52:27.449Z,8.57
2023-03-22T11:54:56.181Z,9.23
2023-03-22T11:57:30.311Z,7.97
2023-03-22T12:00:06.976Z,8.73
2023-03-22T12:02:58.229Z,7.90
2023-03-22T12:05:34.089Z,7.60
2023-03-22T12:08:27.706Z,7.50
2023-03-22T12:11:07.718Z,6.90
2023-03-22T12:13:52.872Z,6.60
2023-03-22T12:16:28.576Z,6.80
2023-03-22T12:19:13.467Z,7.43
2023-03-22T12:21:41.638Z,8.03
2023-03-22T12:24:26.806Z,10.27
2023-03-22T12:26:58.184Z,9.23
2023-03-22T12:29:27.141Z,6.47
2023-03-22T12:31:54.186Z,7.23
2023-03-22T12:34:26.185Z,7.53
2023-03-22T12:36:56.953Z,6.00
2023-03-22T12:39:42.659Z,7.10
2023-03-22T12:42:24.672Z,6.57
2023-03-22T12:45:05.056Z,6.73
2023-03-22T12:47:41.893Z,6.73
2023-03-22T12:50:31.833Z,6.57
2023-03-22T12:52:59.214Z,6.23
2023-03-22T12:55:31.378Z,6.73
2023-03-22T12:57:58.674Z,7.33
2023-03-22T13:00:33.349Z,8.03
2023-03-22T13:03:10.418Z,8.93
2023-03-22T13:05:38.024Z,7.93
2023-03-22T13:08:05.613Z,7.37
2023-03-22T13:10:32.944Z,5.73
2023-03-22T13:13:33.954Z,4.70
2023-03-22T13:16:02.921Z,5.00
2023-03-22T13:18:35.836Z,4.57
2023-03-22T13:21:16.621Z,5.93
2023-03-22T13:24:00.972Z,4.37
2023-03-22T13:26:32.653Z,10.00
2023-03-22T13:29:08.024Z,5.63
2023-03-22T13:31:42.958Z,7.57
2023-03-22T13:34:18.037Z,5.43
2023-03-22T13:36:56.726Z,7.90
2023-03-22T13:39:27.419Z,10.13
2023-03-22T13:42:06.086Z,9.77
2023-03-22T13:44:39.050Z,7.30
2023-03-22T13:47:28.536Z,8.53
2023-03-22T13:50:02.550Z,8.40
2023-03-22T13:52:37.249Z,8.80
2023-03-22T13:55:17.486Z,7.63
2023-03-22T13:57:59.068Z,7.57
2023-03-22T14:00:32.224Z,10.53
2023-03-22T14:03:18.224Z,5.70
2023-03-22T14:05:47.399Z,7.00
2023-03-22T14:08:29.298Z,7.57
2023-03-22T14:11:07.572Z,6.60
2023-03-22T14:13:46.813Z,7.90
2023-03-22T14:16:40.440Z,7.27
2023-03-22T14:19:11.689Z,8.03
2023-03-22T14:21:41.853Z,8.03
